Time;durP1;ratioP1;P1;durP2;ratioP2;P2;SDS_P1;SDS_P2;PMS_P1;PMS_P2;Temp;Humidity;BMP_temperature;BMP_pressure;BME280_temperature;BME280_humidity;BME280_pressure;Samples;Min_cycle;Max_cycle;Signal;HPM_P1;HPM_P2
2023/05/16 00:00:54;;;;;;;;;;;21.60;45.90;;;;;;5131611;27;19912;-54
2023/05/16 00:03:20;;;;;;;;;;;21.60;45.10;;;;;;5131689;27;19919;-55
2023/05/16 00:05:46;;;;;;;;;;;21.60;45.20;;;;;;5130799;27;19980;-54
2023/05/16 00:08:12;;;;;;;;;;;21.60;45.10;;;;;;5121015;27;19911;-55
2023/05/16 00:10:37;;;;;;;;;;;21.60;45.10;;;;;;5134308;27;19911;-55
2023/05/16 00:13:03;;;;;;;;;;;21.60;45.20;;;;;;5132295;27;19915;-54
2023/05/16 00:15:29;;;;;;;;;;;21.60;45.20;;;;;;5130886;27;19916;-55
2023/05/16 00:17:58;;;;;;;;;;;21.60;45.20;;;;;;5129014;27;19992;-55
2023/05/16 00:20:24;;;;;;;;;;;21.60;45.10;;;;;;5114189;27;19946;-54
2023/05/16 00:22:50;;;;;;;;;;;21.60;45.10;;;;;;5132452;27;19921;-55
2023/05/16 00:25:15;;;;;;;;;;;21.60;45.10;;;;;;5132838;27;19911;-55
2023/05/16 00:27:41;;;;;;;;;;;21.60;45.10;;;;;;5114434;27;19912;-54
2023/05/16 00:30:06;;;;;;;;;;;21.60;45.10;;;;;;5132506;27;20275;-54
2023/05/16 00:32:32;;;;;;;;;;;21.50;45.30;;;;;;5114467;27;19975;-55
2023/05/16 00:34:57;;;;;;;;;;;21.50;45.60;;;;;;5131601;27;19920;-54
2023/05/16 00:37:23;;;;;;;;;;;21.40;45.60;;;;;;5114231;27;19964;-55
2023/05/16 00:39:48;;;;;;;;;;;21.30;45.50;;;;;;5133423;27;19907;-54
2023/05/16 00:42:14;;;;;;;;;;;21.30;45.50;;;;;;5110019;27;19930;-55
2023/05/16 00:44:40;;;;;;;;;;;21.20;45.50;;;;;;5130806;27;20395;-55
2023/05/16 00:47:05;;;;;;;;;;;21.20;45.50;;;;;;5131282;27;19923;-54
2023/05/16 00:49:31;;;;;;;;;;;21.10;45.50;;;;;;5130289;27;19922;-54
2023/05/16 00:51:56;;;;;;;;;;;21.10;45.40;;;;;;5129036;27;19911;-55
2023/05/16 00:54:22;;;;;;;;;;;21.10;45.30;;;;;;5113786;27;20275;-55
2023/05/16 00:56:47;;;;;;;;;;;21.10;45.50;;;;;;5102739;28;19947;-54
2023/05/16 00:59:13;;;;;;;;;;;21.10;45.30;;;;;;5125814;27;19915;-55
2023/05/16 01:01:39;;;;;;;;;;;21.00;45.40;;;;;;5090424;27;20375;-55
2023/05/16 01:04:05;;;;;;;;;;;21.00;45.30;;;;;;5113089;27;20373;-55
2023/05/16 01:06:30;;;;;;;;;;;21.10;45.30;;;;;;5130565;27;19917;-55
2023/05/16 01:08:56;;;;;;;;;;;21.10;45.30;;;;;;5114003;27;19956;-56
2023/05/16 01:11:25;;;;;;;;;;;21.20;45.20;;;;;;5119389;27;19988;-55
2023/05/16 01:14:11;;;;;;;;;;;21.20;45.20;;;;;;5122191;27;19912;-55
2023/05/16 01:16:52;;;;;;;;;;;21.20;45.00;;;;;;5111598;27;19948;-55
2023/05/16 01:19:36;;;;;;;;;;;21.30;45.00;;;;;;5130902;27;19922;-55
2023/05/16 01:22:04;;;;;;;;;;;21.30;45.00;;;;;;5132119;27;20371;-55
2023/05/16 01:24:33;;;;;;;;;;;21.30;45.00;;;;;;5113294;28;19920;-56
2023/05/16 01:26:59;;;;;;;;;;;21.30;45.00;;;;;;5114820;28;19971;-55
2023/05/16 01:29:24;;;;;;;;;;;21.30;45.00;;;;;;5130463;28;19919;-55
2023/05/16 01:31:50;;;;;;;;;;;21.30;45.10;;;;;;5110171;28;20330;-55
2023/05/16 01:34:16;;;;;;;;;;;21.30;45.10;;;;;;5129845;28;19911;-55
2023/05/16 01:36:47;;;;;;;;;;;21.30;45.10;;;;;;5096082;28;19933;-55
2023/05/16 01:39:20;;;;;;;;;;;21.30;45.10;;;;;;5128357;28;19965;-55
2023/05/16 01:41:48;;;;;;;;;;;21.30;45.10;;;;;;5131031;28;19919;-55
2023/05/16 01:44:17;;;;;;;;;;;21.30;45.10;;;;;;5109896;28;19921;-55
2023/05/16 01:46:44;;;;;;;;;;;21.30;45.10;;;;;;5110409;28;19919;-55
2023/05/16 01:49:19;;;;;;;;;;;21.30;45.10;;;;;;5113229;28;20026;-55
2023/05/16 01:51:47;;;;;;;;;;;21.30;45.10;;;;;;5130221;27;19919;-55
2023/05/16 01:54:13;;;;;;;;;;;21.30;45.00;;;;;;5100791;27;20383;-55
2023/05/16 01:56:38;;;;;;;;;;;21.30;45.10;;;;;;5114373;27;19946;-54
2023/05/16 01:59:04;;;;;;;;;;;21.30;45.20;;;;;;5134286;27;19919;-55
2023/05/16 02:01:30;;;;;;;;;;;21.20;45.20;;;;;;5135337;27;19976;-55
2023/05/16 02:03:56;;;;;;;;;;;21.20;45.20;;;;;;5135199;27;20345;-55
2023/05/16 02:06:21;;;;;;;;;;;21.20;45.20;;;;;;5109494;27;19912;-55
2023/05/16 02:08:47;;;;;;;;;;;21.20;45.30;;;;;;5116520;27;20330;-55
2023/05/16 02:11:13;;;;;;;;;;;21.20;45.30;;;;;;5117436;27;19915;-55
2023/05/16 02:13:38;;;;;;;;;;;21.20;45.30;;;;;;5132053;27;19915;-55
2023/05/16 02:16:04;;;;;;;;;;;21.20;45.30;;;;;;5134608;27;19971;-55
2023/05/16 02:18:30;;;;;;;;;;;21.20;45.40;;;;;;5130784;27;20564;-54
2023/05/16 02:20:56;;;;;;;;;;;21.10;45.40;;;;;;5134306;27;19918;-55
2023/05/16 02:23:21;;;;;;;;;;;21.20;45.40;;;;;;5114014;27;19915;-55
2023/05/16 02:25:47;;;;;;;;;;;21.20;45.30;;;;;;5136612;27;19911;-56
2023/05/16 02:28:12;;;;;;;;;;;21.10;45.30;;;;;;5135485;27;20295;-55
2023/05/16 02:30:37;;;;;;;;;;;21.10;45.30;;;;;;5116434;27;20275;-55
2023/05/16 02:33:03;;;;;;;;;;;21.20;45.40;;;;;;5116617;27;20279;-55
2023/05/16 02:35:28;;;;;;;;;;;21.20;45.30;;;;;;5133659;27;20367;-55
2023/05/16 02:37:54;;;;;;;;;;;21.20;45.40;;;;;;5133942;27;19912;-55
2023/05/16 02:40:20;;;;;;;;;;;21.20;45.30;;;;;;5132983;27;19951;-55
2023/05/16 02:42:45;;;;;;;;;;;21.20;45.20;;;;;;5133476;27;19911;-56
2023/05/16 02:45:11;;;;;;;;;;;21.20;45.30;;;;;;5134210;27;19913;-55
2023/05/16 02:47:36;;;;;;;;;;;21.10;45.30;;;;;;5115267;27;20395;-55
2023/05/16 02:50:02;;;;;;;;;;;21.10;45.90;;;;;;5115542;27;19919;-55
2023/05/16 02:52:28;;;;;;;;;;;21.10;45.30;;;;;;5125661;27;19943;-56
2023/05/16 02:54:53;;;;;;;;;;;21.10;45.20;;;;;;5128615;27;19916;-55
2023/05/16 02:57:19;;;;;;;;;;;21.10;45.30;;;;;;5124680;27;20374;-54
2023/05/16 02:59:44;;;;;;;;;;;21.10;45.30;;;;;;5110208;27;19938;-54
2023/05/16 03:02:10;;;;;;;;;;;21.10;45.20;;;;;;5134197;27;20283;-55
2023/05/16 03:04:35;;;;;;;;;;;21.10;45.20;;;;;;5131306;27;19918;-55
2023/05/16 03:07:01;;;;;;;;;;;21.10;45.20;;;;;;5134729;27;19945;-55
2023/05/16 03:09:26;;;;;;;;;;;21.10;45.30;;;;;;5133321;27;20447;-55
2023/05/16 03:11:52;;;;;;;;;;;21.10;45.30;;;;;;5133253;27;19946;-55
2023/05/16 03:14:17;;;;;;;;;;;21.00;45.20;;;;;;5131103;27;19911;-55
2023/05/16 03:16:43;;;;;;;;;;;21.00;45.20;;;;;;5115072;27;19911;-55
2023/05/16 03:19:09;;;;;;;;;;;21.00;45.10;;;;;;5131207;27;19911;-55
2023/05/16 03:21:34;;;;;;;;;;;21.00;45.20;;;;;;5135472;27;19916;-55
2023/05/16 03:24:01;;;;;;;;;;;21.00;45.10;;;;;;5132990;27;19914;-55
2023/05/16 03:26:26;;;;;;;;;;;21.10;45.50;;;;;;5083549;28;19934;-55
2023/05/16 03:28:52;;;;;;;;;;;21.00;45.20;;;;;;5129940;27;20426;-55
2023/05/16 03:31:18;;;;;;;;;;;21.10;45.10;;;;;;5132692;27;19984;-55
2023/05/16 03:33:43;;;;;;;;;;;21.00;45.10;;;;;;5132803;27;19911;-55
2023/05/16 03:36:09;;;;;;;;;;;21.00;45.10;;;;;;5133827;27;19915;-55
2023/05/16 03:38:34;;;;;;;;;;;21.00;44.90;;;;;;5115076;27;20379;-56
2023/05/16 03:41:00;;;;;;;;;;;21.00;44.90;;;;;;5113190;27;20247;-56
2023/05/16 03:43:25;;;;;;;;;;;21.00;45.00;;;;;;5108072;28;19912;-55
2023/05/16 03:45:51;;;;;;;;;;;21.00;44.80;;;;;;5122712;27;19916;-55
2023/05/16 03:48:16;;;;;;;;;;;21.00;44.90;;;;;;5132639;27;20343;-55
2023/05/16 03:50:42;;;;;;;;;;;21.00;44.80;;;;;;5130372;27;19919;-56
2023/05/16 03:53:08;;;;;;;;;;;21.00;44.80;;;;;;5104931;27;19911;-55
2023/05/16 03:55:34;;;;;;;;;;;21.10;44.80;;;;;;5110124;27;19947;-54
2023/05/16 03:57:59;;;;;;;;;;;21.00;44.80;;;;;;5131478;27;19953;-55
2023/05/16 04:00:25;;;;;;;;;;;21.00;44.70;;;;;;5100366;27;19965;-55
2023/05/16 04:02:51;;;;;;;;;;;21.00;44.70;;;;;;5129007;27;19912;-55
2023/05/16 04:05:16;;;;;;;;;;;20.90;44.70;;;;;;5131515;27;20356;-55
2023/05/16 04:07:42;;;;;;;;;;;20.90;44.50;;;;;;5133131;27;20310;-55
2023/05/16 04:10:08;;;;;;;;;;;20.90;44.50;;;;;;5132383;27;19919;-55
2023/05/16 04:12:33;;;;;;;;;;;20.90;44.60;;;;;;5131159;27;19911;-55
2023/05/16 04:14:58;;;;;;;;;;;20.90;44.50;;;;;;5131833;27;19912;-56
2023/05/16 04:17:24;;;;;;;;;;;20.90;44.40;;;;;;5130447;27;19975;-55
2023/05/16 04:19:49;;;;;;;;;;;21.10;44.40;;;;;;5132155;27;19911;-55
2023/05/16 04:22:15;;;;;;;;;;;21.20;44.20;;;;;;5131615;27;20318;-55
2023/05/16 04:24:41;;;;;;;;;;;21.20;44.00;;;;;;5114660;27;19911;-55
2023/05/16 04:27:09;;;;;;;;;;;21.20;43.90;;;;;;5130132;27;19927;-55
2023/05/16 04:29:34;;;;;;;;;;;21.10;44.00;;;;;;5132562;27;19941;-55
2023/05/16 04:32:01;;;;;;;;;;;21.10;44.00;;;;;;5131705;27;19919;-55
2023/05/16 04:34:26;;;;;;;;;;;21.10;44.00;;;;;;5133584;27;19907;-55
2023/05/16 04:36:52;;;;;;;;;;;21.20;43.80;;;;;;5113369;27;20002;-55
2023/05/16 04:39:18;;;;;;;;;;;21.30;43.60;;;;;;5122356;27;19919;-55
2023/05/16 04:41:43;;;;;;;;;;;21.40;43.50;;;;;;5131793;27;19915;-55
2023/05/16 04:44:10;;;;;;;;;;;21.50;43.40;;;;;;5130302;27;19918;-55
2023/05/16 04:46:35;;;;;;;;;;;21.50;43.10;;;;;;5130227;27;19923;-55
2023/05/16 04:49:00;;;;;;;;;;;21.50;43.00;;;;;;5132506;27;20444;-55
2023/05/16 04:51:26;;;;;;;;;;;21.60;43.00;;;;;;5121123;27;20010;-55
2023/05/16 04:53:51;;;;;;;;;;;21.50;42.90;;;;;;5123266;27;19915;-55
2023/05/16 04:56:17;;;;;;;;;;;21.60;42.90;;;;;;5124329;27;20014;-55
2023/05/16 04:58:42;;;;;;;;;;;21.60;42.80;;;;;;5115225;27;19912;-55
2023/05/16 05:01:08;;;;;;;;;;;21.60;42.60;;;;;;5129833;27;19911;-55
2023/05/16 05:03:34;;;;;;;;;;;21.60;42.60;;;;;;5130004;27;19916;-55
2023/05/16 05:06:00;;;;;;;;;;;21.50;42.50;;;;;;5130334;27;19916;-55
2023/05/16 05:08:25;;;;;;;;;;;21.50;42.50;;;;;;5131209;27;20002;-55
2023/05/16 05:10:51;;;;;;;;;;;21.50;42.40;;;;;;5130252;27;20290;-55
2023/05/16 05:13:17;;;;;;;;;;;21.50;42.30;;;;;;5131000;27;19915;-56
2023/05/16 05:15:42;;;;;;;;;;;21.50;42.30;;;;;;5132595;27;19915;-55
2023/05/16 05:18:08;;;;;;;;;;;21.50;42.30;;;;;;5128458;27;20056;-55
2023/05/16 05:20:33;;;;;;;;;;;21.50;42.30;;;;;;5112136;27;19919;-55
2023/05/16 05:22:59;;;;;;;;;;;21.50;43.00;;;;;;5128939;27;20387;-55
2023/05/16 05:25:25;;;;;;;;;;;21.50;42.30;;;;;;5131887;27;19924;-55
2023/05/16 05:27:50;;;;;;;;;;;21.50;42.30;;;;;;5125325;27;19911;-55
2023/05/16 05:30:15;;;;;;;;;;;21.50;42.20;;;;;;5112683;28;20295;-55
2023/05/16 05:32:41;;;;;;;;;;;21.50;42.30;;;;;;5112906;28;19911;-55
2023/05/16 05:35:07;;;;;;;;;;;21.50;42.30;;;;;;5131798;28;19923;-55
2023/05/16 05:37:32;;;;;;;;;;;21.50;42.30;;;;;;5110622;28;20394;-54
2023/05/16 05:39:58;;;;;;;;;;;21.50;42.30;;;;;;5124617;28;20375;-55
2023/05/16 05:42:23;;;;;;;;;;;21.50;42.30;;;;;;5121032;28;19917;-55
2023/05/16 05:44:49;;;;;;;;;;;21.40;42.20;;;;;;5132150;28;19915;-55
2023/05/16 05:47:14;;;;;;;;;;;21.40;42.20;;;;;;5130617;27;20424;-55
2023/05/16 05:49:40;;;;;;;;;;;21.40;42.00;;;;;;5128155;28;19919;-55
2023/05/16 05:52:05;;;;;;;;;;;21.40;42.10;;;;;;5123200;28;19912;-55
2023/05/16 05:54:30;;;;;;;;;;;21.40;42.00;;;;;;5130442;28;19912;-55
2023/05/16 05:56:56;;;;;;;;;;;21.40;42.10;;;;;;5122104;28;19912;-55
2023/05/16 05:59:22;;;;;;;;;;;21.30;42.00;;;;;;5127515;28;19984;-55
2023/05/16 06:01:51;;;;;;;;;;;21.30;42.00;;;;;;5128654;28;19920;-55
2023/05/16 06:04:19;;;;;;;;;;;21.30;42.00;;;;;;5131463;28;19911;-55
2023/05/16 06:06:45;;;;;;;;;;;21.20;42.00;;;;;;5129916;28;19987;-55
2023/05/16 06:09:12;;;;;;;;;;;21.20;42.00;;;;;;5120290;28;20430;-55
2023/05/16 06:11:38;;;;;;;;;;;21.20;42.10;;;;;;5111870;28;19923;-55
2023/05/16 06:14:04;;;;;;;;;;;21.20;42.10;;;;;;5128319;28;19912;-55
2023/05/16 06:16:29;;;;;;;;;;;21.20;42.00;;;;;;5095725;28;19915;-55
2023/05/16 06:18:55;;;;;;;;;;;21.20;41.90;;;;;;5125794;28;20290;-55
2023/05/16 06:21:20;;;;;;;;;;;21.10;41.90;;;;;;5131557;28;20002;-56
2023/05/16 06:23:46;;;;;;;;;;;21.10;41.90;;;;;;5125831;27;19911;-55
2023/05/16 06:26:11;;;;;;;;;;;21.10;41.70;;;;;;5132473;28;19915;-55
2023/05/16 06:28:36;;;;;;;;;;;21.10;41.70;;;;;;5126450;28;20350;-55
2023/05/16 06:31:02;;;;;;;;;;;21.10;41.80;;;;;;5130073;28;19919;-55
2023/05/16 06:33:27;;;;;;;;;;;21.10;41.80;;;;;;5113751;28;19915;-55
2023/05/16 06:35:53;;;;;;;;;;;21.10;41.80;;;;;;5129328;28;19916;-55
2023/05/16 06:38:18;;;;;;;;;;;21.10;41.70;;;;;;5133552;27;20066;-55
2023/05/16 06:40:44;;;;;;;;;;;21.10;41.60;;;;;;5136147;27;19911;-55
2023/05/16 06:43:10;;;;;;;;;;;21.10;41.80;;;;;;5091184;28;19911;-56
2023/05/16 06:45:36;;;;;;;;;;;21.20;41.60;;;;;;5115270;28;20260;-55
2023/05/16 06:48:01;;;;;;;;;;;21.20;41.50;;;;;;5132172;27;19912;-55
2023/05/16 06:50:27;;;;;;;;;;;21.20;41.60;;;;;;5115444;27;19917;-56
2023/05/16 06:52:52;;;;;;;;;;;21.20;41.60;;;;;;5126704;27;19915;-55
2023/05/16 06:55:18;;;;;;;;;;;21.20;41.80;;;;;;5131111;27;20257;-55
2023/05/16 06:57:43;;;;;;;;;;;21.10;41.10;;;;;;5124740;27;20010;-55
2023/05/16 07:00:09;;;;;;;;;;;21.20;41.80;;;;;;5110785;27;20005;-55
2023/05/16 07:02:34;;;;;;;;;;;21.20;41.50;;;;;;5125923;27;19971;-55
2023/05/16 07:05:00;;;;;;;;;;;21.20;41.50;;;;;;5130000;27;20307;-56
2023/05/16 07:07:25;;;;;;;;;;;21.30;41.60;;;;;;5126764;27;19915;-55
2023/05/16 07:09:51;;;;;;;;;;;21.30;41.50;;;;;;5132118;27;20010;-55
2023/05/16 07:12:17;;;;;;;;;;;21.30;41.50;;;;;;5129975;27;20016;-54
2023/05/16 07:14:42;;;;;;;;;;;21.30;41.40;;;;;;5133094;27;19960;-54
2023/05/16 07:17:08;;;;;;;;;;;21.30;41.50;;;;;;5128919;27;19941;-55
2023/05/16 07:19:33;;;;;;;;;;;21.30;41.30;;;;;;5122375;27;19912;-55
2023/05/16 07:21:59;;;;;;;;;;;21.30;41.20;;;;;;5119771;27;19968;-55
2023/05/16 07:24:24;;;;;;;;;;;21.30;41.20;;;;;;5124110;27;20379;-55
2023/05/16 07:26:50;;;;;;;;;;;21.30;41.20;;;;;;5128525;27;20383;-55
2023/05/16 07:29:16;;;;;;;;;;;21.30;41.00;;;;;;5132252;27;20408;-54
2023/05/16 07:31:41;;;;;;;;;;;21.30;41.00;;;;;;5090070;27;20490;-55
2023/05/16 07:34:08;;;;;;;;;;;21.30;41.00;;;;;;5077169;28;20352;-56
2023/05/16 07:36:33;;;;;;;;;;;21.40;41.10;;;;;;5065526;28;20273;-55
2023/05/16 07:38:59;;;;;;;;;;;21.40;41.10;;;;;;5085103;28;19916;-55
2023/05/16 07:41:25;;;;;;;;;;;21.30;41.00;;;;;;5092299;28;19916;-55
2023/05/16 07:43:50;;;;;;;;;;;21.30;41.10;;;;;;5088226;28;20403;-54
2023/05/16 07:46:16;;;;;;;;;;;21.30;41.00;;;;;;5092186;28;19927;-54
2023/05/16 07:48:41;;;;;;;;;;;21.30;41.00;;;;;;5089459;28;19919;-55
2023/05/16 07:51:07;;;;;;;;;;;21.30;41.10;;;;;;5072402;28;19922;-55
2023/05/16 07:53:32;;;;;;;;;;;21.30;41.00;;;;;;5090455;28;19916;-55
2023/05/16 07:55:57;;;;;;;;;;;21.40;41.00;;;;;;5079840;28;19912;-55
2023/05/16 07:58:23;;;;;;;;;;;21.30;41.10;;;;;;5070566;28;20364;-56
2023/05/16 08:00:49;;;;;;;;;;;21.30;41.10;;;;;;5084290;28;19952;-55
2023/05/16 08:03:15;;;;;;;;;;;21.30;40.70;;;;;;5088111;28;19912;-54
2023/05/16 08:05:40;;;;;;;;;;;21.30;40.90;;;;;;5088030;28;20391;-55
2023/05/16 08:08:05;;;;;;;;;;;21.30;41.00;;;;;;5073395;28;20026;-55
2023/05/16 08:10:31;;;;;;;;;;;21.30;40.90;;;;;;5074779;28;19923;-54
2023/05/16 08:12:56;;;;;;;;;;;21.30;40.80;;;;;;5082732;28;20414;-55
2023/05/16 08:15:22;;;;;;;;;;;21.30;41.50;;;;;;5081153;28;21184;-55
2023/05/16 08:17:48;;;;;;;;;;;21.40;40.90;;;;;;5088716;28;19916;-55
2023/05/16 08:20:13;;;;;;;;;;;21.40;40.80;;;;;;5091665;28;19912;-55
2023/05/16 08:22:39;;;;;;;;;;;21.30;40.60;;;;;;5080289;28;19919;-55
2023/05/16 08:25:04;;;;;;;;;;;21.30;40.60;;;;;;5090984;28;19998;-55
2023/05/16 08:27:30;;;;;;;;;;;21.40;40.70;;;;;;5092171;28;19912;-55
2023/05/16 08:29:55;;;;;;;;;;;21.30;40.60;;;;;;5090073;28;19923;-55
2023/05/16 08:32:21;;;;;;;;;;;21.30;40.60;;;;;;5085508;28;19912;-56
2023/05/16 08:34:46;;;;;;;;;;;21.30;40.60;;;;;;5090726;28;20408;-55
2023/05/16 08:37:12;;;;;;;;;;;21.40;40.70;;;;;;5085639;28;19916;-55
2023/05/16 08:39:37;;;;;;;;;;;21.30;40.70;;;;;;5089413;28;19916;-56
2023/05/16 08:42:04;;;;;;;;;;;21.30;40.70;;;;;;5091788;28;19912;-54
2023/05/16 08:44:29;;;;;;;;;;;21.30;40.50;;;;;;5089624;28;20261;-55
2023/05/16 08:46:55;;;;;;;;;;;21.30;40.70;;;;;;5080835;28;19942;-55
2023/05/16 08:49:20;;;;;;;;;;;21.40;40.80;;;;;;5078134;28;19952;-54
2023/05/16 08:51:46;;;;;;;;;;;21.40;40.60;;;;;;5083246;28;19943;-55
2023/05/16 08:54:15;;;;;;;;;;;21.40;40.60;;;;;;5074021;28;19916;-55
2023/05/16 08:56:41;;;;;;;;;;;21.40;40.70;;;;;;5080436;28;20380;-56
2023/05/16 08:59:06;;;;;;;;;;;21.50;40.80;;;;;;5084233;28;19935;-55
2023/05/16 09:01:32;;;;;;;;;;;21.50;40.80;;;;;;5085911;28;20718;-55
2023/05/16 09:03:57;;;;;;;;;;;21.50;40.70;;;;;;5065635;28;19924;-55
2023/05/16 09:06:23;;;;;;;;;;;21.50;40.70;;;;;;5060713;28;19912;-55
2023/05/16 09:08:49;;;;;;;;;;;21.50;40.30;;;;;;5087323;28;20004;-55
2023/05/16 09:11:15;;;;;;;;;;;21.50;40.60;;;;;;5065201;28;19920;-55
2023/05/16 09:13:40;;;;;;;;;;;21.60;40.50;;;;;;5089410;28;19919;-55
2023/05/16 09:16:15;;;;;;;;;;;21.60;40.30;;;;;;5083021;28;20338;-55
2023/05/16 09:18:41;;;;;;;;;;;21.60;40.30;;;;;;5085396;28;19923;-56
2023/05/16 09:21:07;;;;;;;;;;;21.60;40.20;;;;;;5085316;28;20011;-55
2023/05/16 09:23:33;;;;;;;;;;;21.60;39.90;;;;;;5090755;28;20002;-55
2023/05/16 09:25:58;;;;;;;;;;;21.60;40.30;;;;;;5082171;28;19912;-56
2023/05/16 09:28:24;;;;;;;;;;;21.60;40.30;;;;;;5087285;28;20549;-56
2023/05/16 09:30:50;;;;;;;;;;;21.60;40.20;;;;;;5090685;28;19950;-55
2023/05/16 09:33:16;;;;;;;;;;;21.60;40.20;;;;;;5068120;28;20011;-56
2023/05/16 09:35:41;;;;;;;;;;;21.70;40.30;;;;;;5086637;28;19926;-55
2023/05/16 09:38:11;;;;;;;;;;;21.70;40.40;;;;;;5086970;28;19923;-55
2023/05/16 09:40:39;;;;;;;;;;;21.70;40.20;;;;;;5059828;28;19955;-55
2023/05/16 09:43:05;;;;;;;;;;;21.70;40.20;;;;;;5088772;28;19974;-55
2023/05/16 09:45:31;;;;;;;;;;;21.60;39.80;;;;;;5086099;28;20269;-56
2023/05/16 09:48:07;;;;;;;;;;;21.50;39.70;;;;;;5080644;28;19973;-55
2023/05/16 09:50:33;;;;;;;;;;;21.60;40.20;;;;;;5079993;28;19985;-56
2023/05/16 09:52:59;;;;;;;;;;;21.60;40.00;;;;;;5087573;28;19912;-55
2023/05/16 09:55:24;;;;;;;;;;;21.60;39.90;;;;;;5090286;28;20366;-55
2023/05/16 09:57:50;;;;;;;;;;;21.60;39.70;;;;;;5085349;28;20392;-56
2023/05/16 10:00:15;;;;;;;;;;;21.60;40.40;;;;;;5087192;28;19916;-56
2023/05/16 10:02:41;;;;;;;;;;;21.60;39.90;;;;;;5089345;28;19908;-56
2023/05/16 10:05:07;;;;;;;;;;;21.60;39.70;;;;;;5088325;28;20006;-55
2023/05/16 10:07:33;;;;;;;;;;;21.60;39.40;;;;;;5068356;28;20014;-56
2023/05/16 10:10:04;;;;;;;;;;;21.60;39.60;;;;;;5070476;28;19920;-55
2023/05/16 10:12:32;;;;;;;;;;;21.60;39.40;;;;;;5082797;28;19968;-56
2023/05/16 10:14:59;;;;;;;;;;;21.60;39.20;;;;;;5088441;28;19927;-54
2023/05/16 10:17:26;;;;;;;;;;;21.50;39.10;;;;;;5087072;28;19916;-55
2023/05/16 10:19:51;;;;;;;;;;;21.50;39.30;;;;;;5092761;28;19916;-55
2023/05/16 10:22:17;;;;;;;;;;;21.50;39.10;;;;;;5057325;28;19920;-57
2023/05/16 10:24:42;;;;;;;;;;;21.50;39.50;;;;;;5087371;28;20091;-56
2023/05/16 10:27:08;;;;;;;;;;;21.60;39.80;;;;;;5093683;28;19916;-56
2023/05/16 10:29:33;;;;;;;;;;;21.50;39.80;;;;;;5083713;28;19912;-56
2023/05/16 10:31:59;;;;;;;;;;;21.60;39.60;;;;;;5091780;28;19939;-55
2023/05/16 10:34:24;;;;;;;;;;;21.60;39.60;;;;;;5094387;28;19916;-55
2023/05/16 10:36:50;;;;;;;;;;;21.60;39.50;;;;;;5093087;28;19954;-55
2023/05/16 10:39:15;;;;;;;;;;;21.60;39.70;;;;;;5093542;28;19912;-55
2023/05/16 10:41:41;;;;;;;;;;;21.70;39.80;;;;;;5078847;28;20285;-55
2023/05/16 10:44:11;;;;;;;;;;;21.70;39.80;;;;;;5072098;28;19912;-55
2023/05/16 10:46:37;;;;;;;;;;;21.70;39.80;;;;;;5089527;28;20360;-55
2023/05/16 10:49:17;;;;;;;;;;;21.80;39.70;;;;;;5088617;28;19912;-55
2023/05/16 10:51:43;;;;;;;;;;;21.80;39.50;;;;;;5091062;28;20010;-55
2023/05/16 10:54:09;;;;;;;;;;;21.80;39.40;;;;;;5091764;28;20041;-55
2023/05/16 10:56:35;;;;;;;;;;;21.80;39.60;;;;;;5079929;28;19917;-56
2023/05/16 10:59:00;;;;;;;;;;;21.80;39.60;;;;;;5088413;28;19941;-54
2023/05/16 11:01:28;;;;;;;;;;;21.70;39.60;;;;;;5069382;28;20383;-54
2023/05/16 11:03:59;;;;;;;;;;;21.70;39.50;;;;;;5088986;28;19912;-55
2023/05/16 11:06:25;;;;;;;;;;;21.80;39.50;;;;;;5089986;28;19912;-55
2023/05/16 11:09:09;;;;;;;;;;;21.80;39.40;;;;;;5089886;28;19919;-55
2023/05/16 11:11:37;;;;;;;;;;;21.80;39.40;;;;;;5079066;28;20410;-54
2023/05/16 11:14:03;;;;;;;;;;;21.80;39.40;;;;;;5078944;28;20376;-54
2023/05/16 11:16:28;;;;;;;;;;;21.80;39.30;;;;;;5087562;28;19916;-55
2023/05/16 11:18:54;;;;;;;;;;;21.80;39.30;;;;;;5057618;28;19919;-54
2023/05/16 11:21:20;;;;;;;;;;;21.90;39.40;;;;;;5080210;28;19916;-54
2023/05/16 11:23:58;;;;;;;;;;;21.90;39.10;;;;;;5086719;28;19916;-54
2023/05/16 11:26:24;;;;;;;;;;;21.90;39.10;;;;;;5081865;28;19916;-54
2023/05/16 11:28:49;;;;;;;;;;;22.10;39.30;;;;;;5083746;28;21455;-54
2023/05/16 11:31:15;;;;;;;;;;;22.20;39.30;;;;;;5083459;28;20353;-55
2023/05/16 11:33:40;;;;;;;;;;;22.20;39.30;;;;;;5063700;28;19926;-54
2023/05/16 11:36:06;;;;;;;;;;;22.20;39.40;;;;;;5072716;28;19918;-55
2023/05/16 11:38:32;;;;;;;;;;;22.20;39.20;;;;;;5085202;28;19969;-54
2023/05/16 11:41:04;;;;;;;;;;;22.20;39.40;;;;;;5081234;28;19920;-54
2023/05/16 11:43:36;;;;;;;;;;;22.20;39.30;;;;;;5089189;28;19923;-55
2023/05/16 11:46:01;;;;;;;;;;;22.30;39.20;;;;;;5089933;28;20428;-54
2023/05/16 11:48:27;;;;;;;;;;;22.30;39.00;;;;;;5089409;28;20012;-55
2023/05/16 11:50:53;;;;;;;;;;;22.30;39.00;;;;;;5085110;28;19927;-55
2023/05/16 11:53:19;;;;;;;;;;;22.20;39.10;;;;;;5087363;28;19916;-55
2023/05/16 11:55:50;;;;;;;;;;;22.30;39.00;;;;;;5089402;28;19969;-55
2023/05/16 11:58:16;;;;;;;;;;;22.30;38.80;;;;;;5093882;28;20326;-54
2023/05/16 12:00:48;;;;;;;;;;;22.30;39.00;;;;;;5066069;28;19916;-54
2023/05/16 12:03:14;;;;;;;;;;;22.30;39.00;;;;;;5082431;28;19912;-54
2023/05/16 12:05:48;;;;;;;;;;;22.40;39.10;;;;;;5064303;28;19932;-54
2023/05/16 12:08:15;;;;;;;;;;;22.40;38.80;;;;;;5086038;28;20011;-54
2023/05/16 12:10:40;;;;;;;;;;;22.40;38.90;;;;;;5069477;28;19912;-54
2023/05/16 12:13:06;;;;;;;;;;;22.40;38.80;;;;;;5071167;28;20455;-55
2023/05/16 12:15:31;;;;;;;;;;;22.40;38.60;;;;;;5091590;28;20330;-54
2023/05/16 12:17:57;;;;;;;;;;;22.30;38.60;;;;;;5071704;28;20006;-55
2023/05/16 12:20:24;;;;;;;;;;;22.30;38.30;;;;;;5071545;28;20431;-54
2023/05/16 12:22:50;;;;;;;;;;;22.30;38.50;;;;;;5086961;28;20280;-55
2023/05/16 12:25:28;;;;;;;;;;;22.30;38.60;;;;;;5072830;28;19909;-55
2023/05/16 12:27:54;;;;;;;;;;;22.40;38.70;;;;;;5084549;28;19934;-55
2023/05/16 12:30:23;;;;;;;;;;;22.40;38.70;;;;;;5077992;28;19916;-54
2023/05/16 12:32:58;;;;;;;;;;;22.40;38.60;;;;;;5082726;28;19916;-55
2023/05/16 12:35:24;;;;;;;;;;;22.40;38.80;;;;;;5088003;28;19912;-55
2023/05/16 12:37:50;;;;;;;;;;;22.50;38.70;;;;;;5086996;28;19916;-54
2023/05/16 12:40:16;;;;;;;;;;;22.50;38.60;;;;;;5087531;28;20002;-54
2023/05/16 12:42:44;;;;;;;;;;;22.50;38.80;;;;;;5086027;28;20384;-55
2023/05/16 12:45:14;;;;;;;;;;;22.50;38.60;;;;;;5085376;28;19954;-54
2023/05/16 12:47:40;;;;;;;;;;;22.50;38.60;;;;;;5052594;28;20474;-55
2023/05/16 12:50:13;;;;;;;;;;;22.50;38.50;;;;;;5064357;28;19916;-55
2023/05/16 12:52:54;;;;;;;;;;;22.50;38.40;;;;;;5065471;28;19917;-55
2023/05/16 12:55:19;;;;;;;;;;;22.50;38.40;;;;;;5090716;28;19912;-54
2023/05/16 12:57:46;;;;;;;;;;;22.50;38.40;;;;;;5062534;28;19916;-54
2023/05/16 13:00:12;;;;;;;;;;;22.50;38.40;;;;;;5089507;28;19973;-55
2023/05/16 13:02:38;;;;;;;;;;;22.40;38.30;;;;;;5062757;28;19916;-54
2023/05/16 13:05:06;;;;;;;;;;;22.40;38.30;;;;;;5088540;28;20015;-54
2023/05/16 13:07:32;;;;;;;;;;;22.40;38.20;;;;;;5088119;28;19912;-54
2023/05/16 13:09:57;;;;;;;;;;;22.40;38.20;;;;;;5088306;28;19923;-55
2023/05/16 13:12:25;;;;;;;;;;;22.40;38.30;;;;;;5089605;28;19916;-54
2023/05/16 13:14:54;;;;;;;;;;;22.40;38.30;;;;;;5088457;28;20334;-54
2023/05/16 13:17:19;;;;;;;;;;;22.40;38.30;;;;;;5088621;28;20368;-54
2023/05/16 13:19:45;;;;;;;;;;;22.50;38.70;;;;;;5075583;28;19939;-55
2023/05/16 13:22:10;;;;;;;;;;;22.50;38.30;;;;;;5080902;28;19920;-54
2023/05/16 13:24:36;;;;;;;;;;;22.50;38.50;;;;;;5061546;28;19919;-54
2023/05/16 13:27:01;;;;;;;;;;;22.50;38.50;;;;;;5085303;28;19958;-54
2023/05/16 13:29:27;;;;;;;;;;;22.50;38.80;;;;;;5071091;28;19920;-55
2023/05/16 13:31:53;;;;;;;;;;;22.50;38.80;;;;;;5089869;28;19931;-54
2023/05/16 13:34:18;;;;;;;;;;;22.50;38.60;;;;;;5087110;28;19913;-54
2023/05/16 13:36:45;;;;;;;;;;;22.50;38.50;;;;;;5090157;28;19912;-53
2023/05/16 13:39:11;;;;;;;;;;;22.50;38.60;;;;;;5062654;28;19916;-54
2023/05/16 13:41:39;;;;;;;;;;;22.40;38.60;;;;;;5062686;28;20732;-54
2023/05/16 13:44:04;;;;;;;;;;;22.40;38.40;;;;;;5081436;28;20269;-53
2023/05/16 13:46:30;;;;;;;;;;;22.40;38.50;;;;;;5085486;28;19927;-54
2023/05/16 13:48:55;;;;;;;;;;;22.40;39.30;;;;;;5061553;28;20415;-55
2023/05/16 13:51:21;;;;;;;;;;;22.50;38.70;;;;;;5086566;28;20364;-56
2023/05/16 13:53:46;;;;;;;;;;;22.50;38.80;;;;;;5087447;28;20292;-55
2023/05/16 13:56:12;;;;;;;;;;;22.50;38.80;;;;;;5072101;28;19916;-56
2023/05/16 13:58:37;;;;;;;;;;;22.60;38.50;;;;;;5086092;28;19948;-56
2023/05/16 14:01:02;;;;;;;;;;;22.60;38.60;;;;;;5087408;28;19999;-55
2023/05/16 14:03:28;;;;;;;;;;;22.60;38.70;;;;;;5072137;28;20003;-56
2023/05/16 14:05:53;;;;;;;;;;;22.50;38.40;;;;;;5072086;28;19916;-55
2023/05/16 14:08:19;;;;;;;;;;;22.50;38.40;;;;;;5074938;28;20007;-56
2023/05/16 14:10:44;;;;;;;;;;;22.50;38.30;;;;;;5089871;28;19962;-55